Aérodrome :
LOGIN :

S'inscrire | Disclaimer

   EN    FR    IT 

 










Légende :    VFR   VFR Marginal   IFR   IFR Intensif   IFR Très Intensif
Visi : 
Plafond : 
>= 8 km
>= 3000ft
5 à 8 km
1000 à 3000 ft
1500m à 5 km
500 à 1000 ft
800 à 1500m
200 à 500 ft
< 800m
< 200 ft
Symboles :   Orages  Brouillard  Fortes neiges  Fortes précipitations  Vent > 20 kt
SIGMETs :   Divers  Orages  Givrage  Turbulence  Onde Orograph.  Cendres Volcan.






- Altitude de l'aérodrome : 1161 ft
- Code IATA : RJL


LELO - Logroño-Agoncillo

DERNIER METAR :
  • 090800Z AUTO 00000KT CAVOK 23/18 Q1017

METARs EXPIRÉS :
  • 090730Z AUTO VRB01KT CAVOK 22/18 Q1018
  • 090700Z AUTO VRB02KT CAVOK 21/18 Q1018
  • 090630Z AUTO VRB01KT CAVOK 21/18 Q1018
  • 090600Z AUTO VRB01KT CAVOK 19/18 Q1017
  • 090530Z AUTO 00000KT CAVOK 19/18 Q1017
  • 090500Z AUTO 00000KT CAVOK 20/18 Q1018

TAF TAF LELO
Valide du 09 à 03h jusqu'au 10 à 03h UTC


090200Z 0903/1003 10011KT CAVOK TX38/0906Z TN21/0906Z
PROB30
TEMPO 0911/0916 11015G25KT
PROB40
TEMPO 0916/0920 VRB20G35KT TSRA FEW045CB
BECMG 0920/0921 VRB05KT



MET'MAP, la Météo Aéronautique d'un coup d'oeil ! - Copyright ORBIFLY Décembre 2007 - Disclaimer

ORBIFLY MET'MAP TEAM :

Programmation & Développement : Alexandra Zaïnal
Sur une idée originale de : Baudouin d'Aumeries
Assistance à la programmation : Marc-Olivier Méhu
Soutien technique & logistique : Manuel Goepfert

Contact : metmap@orbifly.com




SOURCES & CREDITS :

   NOAA